createdAt,value
2022-10-01T00:07:40.578Z,0.00
2022-10-01T00:17:40.738Z,0.00
2022-10-01T00:27:40.835Z,0.00
2022-10-01T00:37:40.874Z,0.00
2022-10-01T00:47:41.180Z,0.00
2022-10-01T00:57:41.201Z,0.00
2022-10-01T01:07:41.549Z,0.00
2022-10-01T01:17:41.580Z,0.00
2022-10-01T01:27:42.864Z,0.00
2022-10-01T01:37:41.912Z,0.00
2022-10-01T01:47:44.481Z,0.00
2022-10-01T01:57:42.310Z,0.00
2022-10-01T02:07:43.712Z,0.00
2022-10-01T02:17:42.758Z,0.00
2022-10-01T02:27:43.093Z,0.00
2022-10-01T02:37:43.272Z,0.00
2022-10-01T02:47:43.387Z,0.00
2022-10-01T02:57:43.411Z,0.00
2022-10-01T03:07:43.734Z,0.00
2022-10-01T03:17:43.758Z,0.00
2022-10-01T03:27:44.168Z,0.00
2022-10-01T03:37:44.275Z,0.00
2022-10-01T03:47:44.329Z,0.00
2022-10-01T03:57:44.553Z,0.00
2022-10-01T04:07:45.814Z,0.00
2022-10-01T04:17:46.088Z,0.00
2022-10-01T04:27:45.396Z,0.00
2022-10-01T04:37:45.411Z,0.00
2022-10-01T04:47:45.682Z,0.00
2022-10-01T04:57:45.698Z,0.00
2022-10-01T05:07:46.029Z,0.00
2022-10-01T05:17:46.062Z,8.00
2022-10-01T05:27:46.387Z,20.00
2022-10-01T05:37:46.408Z,32.00
2022-10-01T05:47:46.737Z,40.00
2022-10-01T05:57:46.751Z,60.00
2022-10-01T06:07:47.081Z,92.00
2022-10-01T06:17:47.118Z,124.00
2022-10-01T06:27:47.485Z,156.00
2022-10-01T06:37:47.528Z,188.00
2022-10-01T06:47:47.792Z,200.00
2022-10-01T06:57:48.011Z,196.00
2022-10-01T07:07:48.334Z,196.00
2022-10-01T07:17:48.354Z,156.00
2022-10-01T07:27:48.702Z,140.00
2022-10-01T07:37:48.735Z,168.00
2022-10-01T07:47:49.234Z,204.00
2022-10-01T07:57:49.063Z,260.00
2022-10-01T08:07:49.383Z,296.00
2022-10-01T08:17:49.419Z,300.00
2022-10-01T08:27:49.766Z,400.00
2022-10-01T08:37:49.804Z,360.00
2022-10-01T08:47:50.094Z,260.00
2022-10-01T08:57:50.132Z,248.00
2022-10-01T09:07:50.442Z,228.00
2022-10-01T09:17:50.642Z,224.00
2022-10-01T09:27:50.830Z,228.00
2022-10-01T09:37:50.930Z,236.00
2022-10-01T09:47:51.339Z,208.00
2022-10-01T09:57:51.405Z,212.00
2022-10-01T10:07:51.685Z,196.00
2022-10-01T10:17:51.904Z,168.00
2022-10-01T10:27:52.279Z,208.00
2022-10-01T10:37:52.302Z,148.00
2022-10-01T10:47:52.589Z,136.00
2022-10-01T10:57:57.319Z,180.00
2022-10-01T11:07:53.884Z,176.00
2022-10-01T11:17:53.229Z,196.00
2022-10-01T11:27:53.306Z,184.00
2022-10-01T11:37:53.463Z,132.00
2022-10-01T11:47:53.492Z,160.00
2022-10-01T11:57:53.811Z,96.00
2022-10-01T12:07:53.862Z,92.00
2022-10-01T12:17:54.159Z,160.00
2022-10-01T12:27:54.243Z,108.00
2022-10-01T12:37:54.305Z,160.00
2022-10-01T12:47:54.524Z,128.00
2022-10-01T12:57:54.860Z,136.00
2022-10-01T13:07:54.892Z,196.00
2022-10-01T13:17:55.211Z,204.00
2022-10-01T13:27:55.274Z,144.00
2022-10-01T13:37:55.366Z,164.00
2022-10-01T13:47:55.587Z,184.00
2022-10-01T13:57:55.907Z,152.00
2022-10-01T14:07:55.936Z,192.00
2022-10-01T14:17:56.270Z,120.00
2022-10-01T14:27:56.320Z,100.00
2022-10-01T14:37:56.402Z,104.00
2022-10-01T14:47:56.648Z,72.00
2022-10-01T14:57:56.966Z,68.00
2022-10-01T15:07:56.997Z,68.00
2022-10-01T15:17:57.316Z,68.00
2022-10-01T15:27:57.408Z,48.00
2022-10-01T15:37:57.560Z,56.00
2022-10-01T15:47:57.573Z,44.00
2022-10-01T15:57:57.906Z,48.00
2022-10-01T16:07:57.921Z,32.00
2022-10-01T16:17:58.359Z,24.00
2022-10-01T16:27:58.418Z,16.00
2022-10-01T16:37:58.504Z,12.00
2022-10-01T16:47:58.530Z,4.00
2022-10-01T16:57:58.854Z,4.00
2022-10-01T17:07:58.864Z,0.00
2022-10-01T17:17:59.203Z,0.00
2022-10-01T17:27:59.317Z,0.00
2022-10-01T17:37:59.464Z,0.00
2022-10-01T17:47:59.488Z,0.00
2022-10-01T17:57:59.806Z,0.00
2022-10-01T18:07:59.825Z,0.00
2022-10-01T18:19:24.368Z,0.00
2022-10-01T18:28:01.222Z,0.00
2022-10-01T18:38:00.458Z,0.00
2022-10-01T18:48:00.471Z,0.00
2022-10-01T18:58:00.760Z,0.00
2022-10-01T19:08:00.798Z,0.00
2022-10-01T19:18:02.233Z,0.00
2022-10-01T19:28:01.324Z,0.00
2022-10-01T19:38:01.466Z,0.00
2022-10-01T19:48:01.495Z,0.00
2022-10-01T19:58:01.801Z,0.00
2022-10-01T20:08:01.822Z,0.00
2022-10-01T20:18:02.213Z,0.00
2022-10-01T20:28:02.356Z,0.00
2022-10-01T20:38:02.627Z,0.00
2022-10-01T20:48:02.701Z,0.00
2022-10-01T20:58:03.870Z,0.00
2022-10-01T21:08:02.899Z,0.00
2022-10-01T21:18:03.194Z,0.00
2022-10-01T21:28:03.305Z,0.00
2022-10-01T21:38:03.442Z,0.00
2022-10-01T21:48:03.477Z,0.00
2022-10-01T21:58:03.803Z,0.00
2022-10-01T22:08:03.819Z,0.00
2022-10-01T22:18:04.140Z,16.00
2022-10-01T22:28:04.209Z,0.00
2022-10-01T22:38:05.229Z,0.00
2022-10-01T22:48:04.457Z,0.00
2022-10-01T22:58:04.749Z,0.00
2022-10-01T23:08:04.754Z,0.00
2022-10-01T23:18:05.094Z,0.00
2022-10-01T23:28:05.159Z,0.00
2022-10-01T23:38:05.342Z,0.00
2022-10-01T23:48:05.372Z,0.00
2022-10-01T23:58:05.692Z,0.00
